createdAt,value
2018-03-19T00:02:06.087Z,99229.61
2018-03-19T00:08:10.645Z,99230.27
2018-03-19T00:14:15.197Z,99232.23
2018-03-19T00:20:19.906Z,99238.86
2018-03-19T00:26:24.601Z,99228.63
2018-03-19T00:32:29.112Z,99227.81
2018-03-19T00:38:34.489Z,99227.58
2018-03-19T00:44:39.205Z,99222.02
2018-03-19T00:50:43.917Z,99206.62
2018-03-19T00:56:48.609Z,99207.84
2018-03-19T01:02:53.183Z,99189.28
2018-03-19T01:08:57.745Z,99185.39
2018-03-19T01:15:02.318Z,99195.84
2018-03-19T01:21:06.846Z,99183.92
2018-03-19T01:27:12.905Z,99193.23
2018-03-19T01:33:17.433Z,99189.33
2018-03-19T01:39:22.145Z,99186.53
2018-03-19T01:45:27.607Z,99182.95
2018-03-19T01:51:32.157Z,99183.19
2018-03-19T01:57:36.822Z,99184.09
2018-03-19T02:03:42.139Z,99171.27
2018-03-19T02:09:47.014Z,99163.05
2018-03-19T02:15:51.727Z,99168.44
2018-03-19T02:21:56.311Z,99171.30
2018-03-19T02:28:00.856Z,99162.65
2018-03-19T02:34:05.352Z,99156.74
2018-03-19T02:40:09.904Z,99164.70
2018-03-19T02:46:14.441Z,99161.33
2018-03-19T02:52:20.655Z,99152.82
2018-03-19T02:58:25.242Z,99149.91
2018-03-19T03:04:30.590Z,99161.77
2018-03-19T03:10:35.203Z,99164.20
2018-03-19T03:16:40.581Z,99165.81
2018-03-19T03:22:45.147Z,99175.77
2018-03-19T03:28:50.230Z,99178.71
2018-03-19T03:34:54.771Z,99179.88
2018-03-19T03:40:59.292Z,99185.02
2018-03-19T03:47:03.896Z,99189.92
2018-03-19T03:53:08.408Z,99188.16
2018-03-19T03:59:13.731Z,99197.87
2018-03-19T04:05:18.990Z,99198.25
2018-03-19T04:11:24.380Z,99200.19
2018-03-19T04:17:28.910Z,99198.77
2018-03-19T04:23:34.210Z,99207.18
2018-03-19T04:29:38.768Z,99207.02
2018-03-19T04:35:43.571Z,99207.13
2018-03-19T04:41:48.640Z,99208.13
2018-03-19T04:47:54.245Z,99210.34
2018-03-19T04:53:58.843Z,99211.08
2018-03-19T05:00:03.493Z,99219.20
2018-03-19T05:06:08.838Z,99219.97
2018-03-19T05:12:13.431Z,99220.45
2018-03-19T05:18:18.626Z,99223.66
2018-03-19T05:24:23.172Z,99221.66
2018-03-19T05:30:28.655Z,99226.91
2018-03-19T05:36:33.222Z,99232.08
2018-03-19T05:42:37.893Z,99230.23
2018-03-19T05:48:42.445Z,99242.28
2018-03-19T05:54:47.584Z,99249.47
2018-03-19T06:00:52.401Z,99247.98
2018-03-19T06:06:57.028Z,99256.35
2018-03-19T06:13:01.682Z,99264.05
2018-03-19T06:19:07.244Z,99267.06
2018-03-19T06:25:12.541Z,99273.24
2018-03-19T06:31:17.872Z,99281.28
2018-03-19T06:37:22.464Z,99280.66
2018-03-19T06:43:27.135Z,99285.50
2018-03-19T06:49:32.048Z,99287.28
2018-03-19T06:55:36.680Z,99276.34
2018-03-19T07:01:41.380Z,99277.08
2018-03-19T07:07:45.988Z,99268.64
2018-03-19T07:13:50.857Z,99251.12
2018-03-19T07:19:55.384Z,99255.05
2018-03-19T07:26:00.879Z,99250.22
2018-03-19T07:32:05.472Z,99254.23
2018-03-19T07:38:10.760Z,99252.91
2018-03-19T07:44:15.546Z,99256.22
2018-03-19T07:50:21.247Z,99261.16
2018-03-19T07:56:25.755Z,99256.23
2018-03-19T08:02:31.001Z,99267.00
2018-03-19T08:08:35.666Z,99266.57
2018-03-19T08:14:40.397Z,99267.13
2018-03-19T08:20:45.032Z,99268.84
2018-03-19T08:39:50.238Z,99256.75
2018-03-19T08:45:55.228Z,99254.88
2018-03-19T08:51:59.770Z,99249.94
2018-03-19T08:58:04.410Z,99243.28
2018-03-19T09:04:09.677Z,99248.48
2018-03-19T09:10:15.019Z,99241.92
2018-03-19T09:16:19.559Z,99235.64
2018-03-19T09:22:24.832Z,99237.61
2018-03-19T09:28:29.449Z,99237.86
2018-03-19T09:34:34.118Z,99234.03
2018-03-19T09:40:39.218Z,99232.55
2018-03-19T09:46:43.749Z,99231.98
2018-03-19T09:52:48.463Z,99230.95
2018-03-19T09:58:53.056Z,99238.19
2018-03-19T10:04:57.712Z,99227.23
2018-03-19T10:11:02.351Z,99224.97
2018-03-19T10:17:06.960Z,99218.41
2018-03-19T10:23:11.627Z,99213.28
2018-03-19T10:29:16.305Z,99200.34
2018-03-19T10:35:21.633Z,99193.09
2018-03-19T10:41:26.351Z,99186.71
2018-03-19T10:47:30.856Z,99194.47
2018-03-19T10:53:35.414Z,99199.23
2018-03-19T10:59:39.941Z,99171.98
2018-03-19T11:05:50.524Z,99166.35
2018-03-19T11:11:55.170Z,99180.97
2018-03-19T11:17:59.773Z,99177.69
2018-03-19T11:24:04.267Z,99168.47
2018-03-19T11:30:08.888Z,99158.66
2018-03-19T11:36:13.657Z,99155.80
2018-03-19T11:42:18.770Z,99145.13
2018-03-19T11:48:23.495Z,99151.55
2018-03-19T11:54:28.232Z,99151.22
2018-03-19T12:00:33.529Z,99143.03
2018-03-19T12:06:38.883Z,99140.14
2018-03-19T12:12:44.321Z,99149.02
2018-03-19T12:18:48.849Z,99143.20
2018-03-19T12:24:53.468Z,99147.91
2018-03-19T12:30:58.059Z,99148.07
2018-03-19T12:37:02.717Z,99140.09
2018-03-19T12:43:07.462Z,99133.17
2018-03-19T12:49:12.024Z,99132.80
2018-03-19T12:55:17.427Z,99144.68
2018-03-19T13:01:22.842Z,99140.88
2018-03-19T13:07:27.664Z,99144.69
2018-03-19T13:13:32.155Z,99143.56
2018-03-19T13:19:36.761Z,99140.37
2018-03-19T13:25:42.167Z,99130.10
2018-03-19T13:31:48.495Z,99135.86
2018-03-19T13:37:53.016Z,99145.06
2018-03-19T13:43:57.534Z,99139.74
2018-03-19T13:50:02.258Z,99140.80
2018-03-19T13:56:06.764Z,99121.89
2018-03-19T14:02:11.319Z,99130.13
2018-03-19T14:08:16.535Z,99131.32
2018-03-19T14:14:21.614Z,99123.06
2018-03-19T14:20:26.125Z,99129.20
2018-03-19T14:26:30.652Z,99122.20
2018-03-19T14:32:35.136Z,99109.59
2018-03-19T14:38:40.359Z,99114.68
2018-03-19T14:44:44.901Z,99118.97
2018-03-19T14:50:49.984Z,99114.88
2018-03-19T14:56:54.529Z,99103.48
2018-03-19T15:02:59.367Z,99103.24
2018-03-19T15:09:03.929Z,99100.11
2018-03-19T15:15:08.423Z,99093.72
2018-03-19T15:21:12.915Z,99091.10
2018-03-19T15:27:17.578Z,99092.97
2018-03-19T15:33:22.144Z,99103.00
2018-03-19T15:39:26.753Z,99100.17
2018-03-19T15:45:31.257Z,99100.23
2018-03-19T15:51:35.875Z,99103.39
2018-03-19T15:57:40.354Z,99101.86
2018-03-19T16:03:45.004Z,99095.63
2018-03-19T16:09:51.105Z,99101.63
2018-03-19T16:15:55.635Z,99106.31
2018-03-19T16:22:00.173Z,99108.37
2018-03-19T16:28:05.755Z,99114.58
2018-03-19T16:34:10.263Z,99120.26
2018-03-19T16:40:15.684Z,99120.34
2018-03-19T16:46:21.047Z,99126.16
2018-03-19T16:52:26.397Z,99140.78
2018-03-19T16:58:31.256Z,99129.84
2018-03-19T17:04:35.814Z,99138.92
2018-03-19T17:10:40.340Z,99146.89
2018-03-19T17:16:45.709Z,99143.64
2018-03-19T17:22:51.300Z,99161.84
2018-03-19T17:28:55.999Z,99166.55
2018-03-19T17:35:01.255Z,99175.77
2018-03-19T17:41:05.741Z,99173.62
2018-03-19T17:47:10.279Z,99178.94
2018-03-19T17:53:14.788Z,99189.64
2018-03-19T17:59:21.389Z,99190.52
2018-03-19T18:05:26.042Z,99200.91
2018-03-19T18:11:30.595Z,99202.05
2018-03-19T18:17:35.545Z,99215.23
2018-03-19T18:23:40.068Z,99214.94
2018-03-19T18:29:44.749Z,99219.00
2018-03-19T18:35:50.244Z,99233.03
2018-03-19T18:41:55.659Z,99236.03
2018-03-19T18:48:00.380Z,99240.17
2018-03-19T18:54:04.978Z,99242.05
2018-03-19T19:00:09.485Z,99242.84
2018-03-19T19:06:15.072Z,99240.39
2018-03-19T19:25:19.675Z,99234.55
2018-03-19T19:31:24.286Z,99243.13
2018-03-19T19:37:30.465Z,99250.59
2018-03-19T19:43:35.044Z,99250.30
2018-03-19T19:49:40.405Z,99255.95
2018-03-19T19:55:45.111Z,99253.45
2018-03-19T20:01:50.280Z,99265.90
2018-03-19T20:07:54.881Z,99268.86
2018-03-19T20:13:59.537Z,99265.23
2018-03-19T20:20:04.793Z,99273.95
2018-03-19T20:26:09.290Z,99273.80
2018-03-19T20:32:13.988Z,99273.77
2018-03-19T20:38:20.117Z,99280.01
2018-03-19T20:44:24.970Z,99268.08
2018-03-19T20:50:29.594Z,99265.31
2018-03-19T20:56:34.883Z,99261.22
2018-03-19T21:02:40.218Z,99261.33
2018-03-19T21:08:44.745Z,99257.77
2018-03-19T21:14:49.800Z,99261.45
2018-03-19T21:20:54.538Z,99257.41
2018-03-19T21:26:59.855Z,99255.08
2018-03-19T21:33:04.360Z,99261.22
2018-03-19T21:39:09.102Z,99256.76
2018-03-19T21:45:14.413Z,99254.30
2018-03-19T21:51:19.499Z,99257.34
2018-03-19T21:57:25.090Z,99257.70
2018-03-19T22:03:29.583Z,99247.48
2018-03-19T22:09:34.100Z,99243.19
2018-03-19T22:15:38.903Z,99250.05
2018-03-19T22:21:43.395Z,99237.09
2018-03-19T22:27:49.340Z,99228.32
2018-03-19T22:33:54.742Z,99216.94
2018-03-19T22:40:00.248Z,99224.06
2018-03-19T22:46:04.961Z,99219.78
2018-03-19T22:52:09.559Z,99217.73
2018-03-19T22:58:14.205Z,99225.78
2018-03-19T23:04:36.875Z,99220.19
2018-03-19T23:10:41.359Z,99220.84
2018-03-19T23:16:46.399Z,99219.03
2018-03-19T23:22:52.119Z,99206.55
2018-03-19T23:28:57.439Z,99200.33
2018-03-19T23:35:01.961Z,99201.03
2018-03-19T23:41:06.606Z,99193.63
2018-03-19T23:47:11.156Z,99191.29
2018-03-19T23:53:17.069Z,99195.52
2018-03-19T23:59:21.703Z,99207.00
